Terminal Aerodrome Forecast
Issued by NWS

Home | Current Version | Previous Version | Text Only | Print | Product List | Glossary On
Versions: 1 2 3 4 5 6 7 8 9 10 11 12 13 14 15 16 17 18
002
FTUS43 KBIS 092339
TAFDIK
TAF
KDIK 092339Z 1000/1024 34005KT P6SM SCT035 OVC060
     FM100400 17004KT P6SM OVC090
     FM101200 28009KT P6SM SCT200 WS020/30040KT
     FM101600 30012KT P6SM BKN100
     FM101900 33013KT P6SM BKN020=

USA.gov is the U.S. government's official web portal to all federal, state and local government web resources and services.